Beaverville, Illinois
Current Conditions -  °F | °C
As of 12:35 AM on Sunday 21 Dec 2014 (Local Time) from KIKK Reporting Station
Overcast Overcast  
Wind Chill: 27°   Ceiling: 2700
Heat Index: 32°   Visibility: 10mi
Dew Point: 28°   Wind: 5mph
Humidity: 86%   Direction: 150°SSE
Pressure: 30.27"   Gusts: NA
Location:  40.95°N, 87.65°W
Report Text: KIKK 210635Z AUTO 15004KT 10SM OVC027 00/M02 A3027 RMK AO2 T00001021
Loading
Personal Weather Stations






























Interactive Weather Map New forecast layout! Learn more

10-Day Weather Forecast

Advertisements
Track Severe Weather on mobile